Time;durP1;ratioP1;P1;durP2;ratioP2;P2;SDS_P1;SDS_P2;PMS_P1;PMS_P2;Temp;Humidity;BMP_temperature;BMP_pressure;BME280_temperature;BME280_humidity;BME280_pressure;Samples;Min_cycle;Max_cycle;Signal;HPM_P1;HPM_P2
2023/08/24 00:00:37;;;;;;;8.02;5.55;;;15.20;99.90;;;;;;5116034;28;20039;-71
2023/08/24 00:03:05;;;;;;;9.63;5.38;;;15.20;99.90;;;;;;5115816;28;20453;-71
2023/08/24 00:05:36;;;;;;;10.25;5.20;;;15.20;99.90;;;;;;5096729;28;20039;-71
2023/08/24 00:08:04;;;;;;;7.60;5.30;;;15.10;99.90;;;;;;5092350;27;20054;-71
2023/08/24 00:10:31;;;;;;;7.82;5.30;;;15.10;99.90;;;;;;5135056;27;20050;-72
2023/08/24 00:12:58;;;;;;;7.40;5.00;;;15.10;99.90;;;;;;5116192;27;20051;-72
2023/08/24 00:15:25;;;;;;;7.75;4.88;;;15.10;99.90;;;;;;5116534;27;20047;-71
2023/08/24 00:17:53;;;;;;;8.52;5.13;;;15.00;99.90;;;;;;5116593;27;20088;-71
2023/08/24 00:20:20;;;;;;;8.98;5.47;;;15.00;99.90;;;;;;5133938;27;20493;-71
2023/08/24 00:22:48;;;;;;;8.45;5.32;;;15.00;99.90;;;;;;5116627;27;20051;-71
2023/08/24 00:25:15;;;;;;;6.85;4.97;;;15.00;99.90;;;;;;5096401;28;20100;-70
2023/08/24 00:27:42;;;;;;;8.50;5.50;;;15.00;99.90;;;;;;5078884;27;20056;-70
2023/08/24 00:30:10;;;;;;;6.70;5.22;;;15.00;99.90;;;;;;5080126;27;20051;-71
2023/08/24 00:32:37;;;;;;;6.25;5.30;;;15.00;99.90;;;;;;5078364;27;20044;-70
2023/08/24 00:35:07;;;;;;;8.90;5.22;;;15.00;99.90;;;;;;5115384;28;20050;-71
2023/08/24 00:37:35;;;;;;;7.07;5.22;;;15.00;99.90;;;;;;5078259;27;20101;-71
2023/08/24 00:40:04;;;;;;;7.32;4.55;;;15.00;99.90;;;;;;5126829;27;20054;-70
2023/08/24 00:42:32;;;;;;;7.18;4.25;;;15.00;99.90;;;;;;5094794;28;20495;-72
2023/08/24 00:44:59;;;;;;;7.88;4.65;;;15.00;99.90;;;;;;5095817;28;20067;-71
2023/08/24 00:47:26;;;;;;;7.03;4.45;;;15.10;99.90;;;;;;5096209;28;20051;-71
2023/08/24 00:49:53;;;;;;;6.03;4.72;;;15.10;99.90;;;;;;5078366;28;20097;-70
2023/08/24 00:52:22;;;;;;;6.20;4.70;;;15.10;99.90;;;;;;5111746;28;20054;-72
2023/08/24 00:54:49;;;;;;;8.50;5.45;;;15.00;99.90;;;;;;5077524;27;20507;-71
2023/08/24 00:57:16;;;;;;;10.85;5.57;;;15.00;99.90;;;;;;5078821;28;20052;-72
2023/08/24 00:59:43;;;;;;;7.00;4.72;;;15.10;99.90;;;;;;5079157;27;20055;-72
2023/08/24 01:02:10;;;;;;;8.00;5.43;;;15.10;99.90;;;;;;5115389;27;20403;-72
2023/08/24 01:04:37;;;;;;;7.10;4.65;;;15.20;99.90;;;;;;5115541;27;20043;-71
2023/08/24 01:07:04;;;;;;;6.93;5.03;;;15.20;99.90;;;;;;5115827;27;20064;-70
2023/08/24 01:09:33;;;;;;;5.60;4.40;;;15.20;99.90;;;;;;5113380;27;20458;-71
2023/08/24 01:12:06;;;;;;;7.63;4.68;;;15.20;99.90;;;;;;5105196;27;20043;-70
2023/08/24 01:14:42;;;;;;;6.90;4.72;;;15.20;99.90;;;;;;5112520;27;20100;-72
2023/08/24 01:17:12;;;;;;;6.05;4.65;;;15.30;99.90;;;;;;5115466;27;20054;-71
2023/08/24 01:19:42;;;;;;;7.32;4.53;;;15.30;99.90;;;;;;5115626;27;20043;-71
2023/08/24 01:22:24;;;;;;;6.77;5.07;;;15.30;99.90;;;;;;5095690;28;20392;-71
2023/08/24 01:25:07;;;;;;;9.02;5.47;;;15.30;99.90;;;;;;5096104;28;20355;-71
2023/08/24 01:27:37;;;;;;;9.15;5.88;;;15.30;99.90;;;;;;5110249;27;20055;-70
2023/08/24 01:30:06;;;;;;;7.35;5.43;;;15.30;99.90;;;;;;5114889;27;20043;-70
2023/08/24 01:32:33;;;;;;;9.55;6.20;;;15.30;99.90;;;;;;5115389;27;20047;-70
2023/08/24 01:35:00;;;;;;;10.15;5.70;;;15.30;99.90;;;;;;5133539;27;20058;-70
2023/08/24 01:37:28;;;;;;;7.15;5.57;;;15.30;99.90;;;;;;5114452;27;20042;-71
2023/08/24 01:40:05;;;;;;;11.57;5.97;;;15.30;99.90;;;;;;5115186;27;20054;-71
2023/08/24 01:42:36;;;;;;;7.43;5.85;;;15.30;99.90;;;;;;5115286;27;20047;-71
2023/08/24 01:45:08;;;;;;;13.68;7.22;;;15.30;99.90;;;;;;5133416;27;20049;-71
2023/08/24 01:47:37;;;;;;;13.25;6.88;;;15.30;99.90;;;;;;5093549;28;20048;-70
2023/08/24 01:50:05;;;;;;;8.25;5.97;;;15.40;99.90;;;;;;5097132;27;20044;-71
2023/08/24 01:52:33;;;;;;;8.82;6.15;;;15.40;99.90;;;;;;5094782;27;20411;-70
2023/08/24 01:55:00;;;;;;;9.57;6.10;;;15.40;99.90;;;;;;5094652;27;20044;-70
2023/08/24 01:57:27;;;;;;;9.27;6.22;;;15.40;99.90;;;;;;5092686;28;20419;-70
2023/08/24 01:59:55;;;;;;;9.73;6.22;;;15.40;99.90;;;;;;5076436;28;20467;-70
2023/08/24 02:02:23;;;;;;;10.07;6.45;;;15.50;99.90;;;;;;5077475;28;20435;-70
2023/08/24 02:04:49;;;;;;;12.18;6.07;;;15.50;99.90;;;;;;5075678;27;20423;-70
2023/08/24 02:07:17;;;;;;;8.57;5.60;;;15.50;99.90;;;;;;5077562;28;20040;-70
2023/08/24 02:09:43;;;;;;;7.63;6.30;;;15.60;99.90;;;;;;5110206;27;20515;-70
2023/08/24 02:12:10;;;;;;;8.05;6.10;;;15.60;99.90;;;;;;5132078;27;20051;-71
2023/08/24 02:14:37;;;;;;;7.65;6.50;;;15.60;99.90;;;;;;5114180;27;20047;-71
2023/08/24 02:17:06;;;;;;;14.80;6.53;;;15.70;99.90;;;;;;5132352;27;20491;-71
2023/08/24 02:19:33;;;;;;;9.57;5.53;;;15.80;99.90;;;;;;5113754;27;20050;-71
2023/08/24 02:21:59;;;;;;;9.00;5.97;;;15.80;99.90;;;;;;5095086;28;20055;-71
2023/08/24 02:24:26;;;;;;;10.65;5.95;;;15.80;99.90;;;;;;5095049;28;20043;-71
2023/08/24 02:26:53;;;;;;;7.15;5.40;;;15.90;99.90;;;;;;5125240;27;20046;-71
2023/08/24 02:29:20;;;;;;;8.02;5.38;;;15.90;99.90;;;;;;5094039;27;20093;-71
2023/08/24 02:31:49;;;;;;;8.40;5.57;;;15.90;99.90;;;;;;5075758;28;20048;-71
2023/08/24 02:34:18;;;;;;;10.38;5.53;;;15.90;99.90;;;;;;5076782;28;20048;-71
2023/08/24 02:36:45;;;;;;;9.05;5.55;;;15.90;99.90;;;;;;5092808;28;20487;-71
2023/08/24 02:39:13;;;;;;;8.40;6.05;;;15.90;99.90;;;;;;5094328;28;20387;-71
2023/08/24 02:41:40;;;;;;;7.13;5.10;;;16.00;99.90;;;;;;5078290;28;20121;-71
2023/08/24 02:44:07;;;;;;;9.07;4.78;;;16.00;99.90;;;;;;5076793;28;20496;-71
2023/08/24 02:46:34;;;;;;;9.75;5.10;;;16.00;99.90;;;;;;5109043;27;20054;-71
2023/08/24 02:49:01;;;;;;;7.75;5.43;;;16.10;99.90;;;;;;5113679;27;20043;-71
2023/08/24 02:51:31;;;;;;;8.70;5.47;;;16.10;99.90;;;;;;5113903;27;20453;-72
2023/08/24 02:53:58;;;;;;;8.82;5.28;;;16.10;99.90;;;;;;5112811;27;20047;-71
2023/08/24 02:56:25;;;;;;;10.05;5.22;;;16.10;99.90;;;;;;5113543;28;20046;-71
2023/08/24 02:58:52;;;;;;;8.30;5.15;;;16.20;99.90;;;;;;5110538;28;20403;-71
2023/08/24 03:01:19;;;;;;;7.97;5.10;;;16.20;99.90;;;;;;5112095;28;20093;-71
2023/08/24 03:03:46;;;;;;;10.43;5.70;;;16.20;99.90;;;;;;5093161;28;20403;-71
2023/08/24 03:06:13;;;;;;;7.80;5.40;;;16.30;99.90;;;;;;5075947;28;20044;-71
2023/08/24 03:08:41;;;;;;;10.07;5.07;;;16.30;99.90;;;;;;5092914;28;20066;-71
2023/08/24 03:11:08;;;;;;;9.48;5.80;;;16.30;99.90;;;;;;5113505;28;20496;-71
2023/08/24 03:13:37;;;;;;;11.80;5.68;;;16.30;99.90;;;;;;5113797;28;20054;-71
2023/08/24 03:16:07;;;;;;;10.10;5.53;;;16.30;99.90;;;;;;5130932;28;20504;-71
2023/08/24 03:18:35;;;;;;;8.38;5.38;;;16.30;99.90;;;;;;5131817;28;20047;-71
2023/08/24 03:21:02;;;;;;;8.85;4.95;;;16.30;99.90;;;;;;5112690;28;20498;-71
2023/08/24 03:23:29;;;;;;;13.48;5.90;;;16.20;99.90;;;;;;5113410;28;20043;-71
2023/08/24 03:25:58;;;;;;;10.38;5.80;;;16.20;99.90;;;;;;5131912;28;20057;-70
2023/08/24 03:28:25;;;;;;;11.63;5.45;;;16.20;99.90;;;;;;5112668;28;20050;-71
2023/08/24 03:30:55;;;;;;;7.55;5.10;;;16.10;99.90;;;;;;5131906;28;20246;-71
2023/08/24 03:33:22;;;;;;;7.65;5.78;;;16.10;99.90;;;;;;5113487;28;20096;-70
2023/08/24 03:35:49;;;;;;;10.68;5.30;;;16.10;99.90;;;;;;5112899;28;20490;-70
2023/08/24 03:38:16;;;;;;;10.88;5.28;;;16.10;99.90;;;;;;5095535;28;20462;-71
2023/08/24 03:40:43;;;;;;;9.85;5.38;;;16.10;99.90;;;;;;5093252;28;20051;-70
2023/08/24 03:43:12;;;;;;;11.48;6.57;;;16.10;99.90;;;;;;5109493;28;20475;-72
2023/08/24 03:45:39;;;;;;;11.20;5.55;;;16.10;99.90;;;;;;5111853;28;20491;-71
2023/08/24 03:48:06;;;;;;;11.40;6.50;;;16.20;99.90;;;;;;5094104;28;20052;-71
2023/08/24 03:50:33;;;;;;;12.77;5.40;;;16.10;99.90;;;;;;5074733;28;20047;-71
2023/08/24 03:53:00;;;;;;;8.82;6.10;;;16.10;99.90;;;;;;5115459;28;20099;-71
2023/08/24 03:55:27;;;;;;;10.07;6.55;;;16.10;99.90;;;;;;5131179;28;20043;-72
2023/08/24 03:57:54;;;;;;;17.40;7.40;;;16.10;99.90;;;;;;5112274;28;20043;-72
2023/08/24 04:00:23;;;;;;;10.30;6.60;;;16.10;99.90;;;;;;5110350;28;20052;-72
2023/08/24 04:02:50;;;;;;;11.02;5.90;;;16.20;99.90;;;;;;5074938;28;20051;-72
2023/08/24 04:05:17;;;;;;;13.45;6.25;;;16.20;99.90;;;;;;5092269;28;20044;-72
2023/08/24 04:07:44;;;;;;;8.82;5.70;;;16.10;99.90;;;;;;5074792;28;20044;-72
2023/08/24 04:10:12;;;;;;;9.63;5.95;;;16.10;99.90;;;;;;5092976;28;20051;-72
2023/08/24 04:12:39;;;;;;;9.07;5.75;;;16.10;99.90;;;;;;5093067;28;20050;-72
2023/08/24 04:15:06;;;;;;;11.63;6.75;;;16.10;99.90;;;;;;5120891;28;20047;-72
2023/08/24 04:17:35;;;;;;;7.95;6.03;;;16.10;99.90;;;;;;5112141;28;20047;-72
2023/08/24 04:20:02;;;;;;;10.05;6.43;;;16.10;99.90;;;;;;5113554;27;20055;-71
2023/08/24 04:22:29;;;;;;;13.32;6.85;;;16.10;99.90;;;;;;5088407;28;20051;-71
2023/08/24 04:24:55;;;;;;;14.52;6.18;;;16.10;99.90;;;;;;5083882;27;20048;-72
2023/08/24 04:27:22;;;;;;;7.93;4.60;;;16.20;99.90;;;;;;5096077;27;20427;-71
2023/08/24 04:29:49;;;;;;;9.63;5.53;;;16.40;99.90;;;;;;5122641;27;20036;-71
2023/08/24 04:32:16;;;;;;;11.45;6.43;;;16.60;99.90;;;;;;5104588;28;20129;-71
2023/08/24 04:34:45;;;;;;;10.57;5.03;;;16.60;99.90;;;;;;5128085;28;20028;-72
2023/08/24 04:37:12;;;;;;;8.32;5.32;;;16.80;99.90;;;;;;5088777;28;21493;-72
2023/08/24 04:39:39;;;;;;;9.00;5.40;;;16.80;99.90;;;;;;5110124;28;20055;-72
2023/08/24 04:42:07;;;;;;;9.50;5.65;;;16.80;99.90;;;;;;5091131;28;20048;-73
2023/08/24 04:44:34;;;;;;;12.50;5.43;;;16.90;99.90;;;;;;5093025;28;20047;-72
2023/08/24 04:47:01;;;;;;;10.98;5.93;;;16.90;99.90;;;;;;5112162;28;20054;-72
2023/08/24 04:49:29;;;;;;;9.93;5.68;;;17.00;99.90;;;;;;5094260;28;20043;-72
2023/08/24 04:51:57;;;;;;;9.15;5.45;;;17.00;99.90;;;;;;5092390;28;20044;-71
2023/08/24 04:54:24;;;;;;;11.07;5.75;;;17.10;99.90;;;;;;5091174;28;20047;-71
2023/08/24 04:56:51;;;;;;;9.02;5.15;;;17.10;99.90;;;;;;5104504;28;20492;-71
2023/08/24 04:59:18;;;;;;;9.75;5.50;;;17.10;99.90;;;;;;5093210;28;20048;-71
2023/08/24 05:01:45;;;;;;;10.00;4.63;;;17.20;99.90;;;;;;5092366;28;20442;-71
2023/08/24 05:04:12;;;;;;;12.15;4.95;;;17.40;99.90;;;;;;5103907;27;20373;-73
2023/08/24 05:06:40;;;;;;;9.02;4.93;;;17.30;99.90;;;;;;5091325;28;20480;-72
2023/08/24 05:09:09;;;;;;;11.90;4.97;;;17.40;99.90;;;;;;5106052;28;20066;-71
2023/08/24 05:11:36;;;;;;;9.70;4.65;;;17.40;99.90;;;;;;5090775;28;20047;-72
2023/08/24 05:14:03;;;;;;;7.80;4.32;;;17.50;99.90;;;;;;5092777;28;20047;-72
2023/08/24 05:16:30;;;;;;;9.45;4.88;;;17.40;99.90;;;;;;5093621;28;20035;-72
2023/08/24 05:18:57;;;;;;;8.13;4.15;;;17.50;99.90;;;;;;5092513;27;20058;-74
2023/08/24 05:21:24;;;;;;;9.55;4.65;;;17.70;99.90;;;;;;5090076;28;20055;-71
2023/08/24 05:23:51;;;;;;;8.38;4.13;;;17.70;99.90;;;;;;5084120;27;20054;-72
2023/08/24 05:26:22;;;;;;;11.50;4.07;;;17.70;99.90;;;;;;5094362;28;20070;-71
2023/08/24 05:28:49;;;;;;;9.00;3.85;;;17.70;99.90;;;;;;5104135;28;20044;-71
2023/08/24 05:31:16;;;;;;;14.30;4.72;;;17.60;99.90;;;;;;5102379;28;20514;-71
2023/08/24 05:33:43;;;;;;;12.00;4.78;;;17.50;99.90;;;;;;5103893;27;20051;-71
2023/08/24 05:36:10;;;;;;;6.72;3.17;;;17.60;99.90;;;;;;5105133;28;20043;-71
2023/08/24 05:38:37;;;;;;;9.55;4.30;;;17.70;99.90;;;;;;5092394;28;20390;-71
2023/08/24 05:41:05;;;;;;;8.10;3.85;;;17.70;99.90;;;;;;5090933;27;20054;-71
2023/08/24 05:43:33;;;;;;;10.02;4.20;;;17.80;99.90;;;;;;5088515;28;20055;-71
2023/08/24 05:46:00;;;;;;;7.63;3.65;;;17.80;99.90;;;;;;5109010;27;20503;-71
2023/08/24 05:48:27;;;;;;;8.38;4.90;;;17.70;99.90;;;;;;5090824;28;20044;-71
2023/08/24 05:50:54;;;;;;;11.93;5.72;;;17.60;99.90;;;;;;5090614;28;20110;-72
2023/08/24 05:53:21;;;;;;;13.35;5.72;;;17.50;99.90;;;;;;5104244;28;20044;-72
2023/08/24 05:55:48;;;;;;;9.85;5.65;;;17.40;99.90;;;;;;5107774;28;20392;-71
2023/08/24 05:58:15;;;;;;;11.60;5.63;;;17.50;99.90;;;;;;5093196;28;20058;-71
2023/08/24 06:00:43;;;;;;;15.57;6.55;;;17.50;99.90;;;;;;5080508;27;20044;-71
2023/08/24 06:03:10;;;;;;;12.40;6.40;;;17.50;99.90;;;;;;5078466;28;20574;-71
2023/08/24 06:05:38;;;;;;;13.07;5.65;;;17.60;99.90;;;;;;5107204;27;20512;-71
2023/08/24 06:08:06;;;;;;;12.63;5.53;;;17.60;99.90;;;;;;5088279;28;20529;-71
2023/08/24 06:10:33;;;;;;;10.45;6.30;;;17.70;99.90;;;;;;5087694;28;20047;-71
2023/08/24 06:13:01;;;;;;;9.52;6.50;;;17.80;99.90;;;;;;5108549;27;20059;-72
2023/08/24 06:15:28;;;;;;;12.05;5.55;;;17.90;99.90;;;;;;5089934;28;20487;-72
2023/08/24 06:17:58;;;;;;;12.25;5.75;;;18.10;99.90;;;;;;5111843;28;20101;-72
2023/08/24 06:20:25;;;;;;;10.07;5.78;;;18.40;99.90;;;;;;5110960;28;20071;-72
2023/08/24 06:22:52;;;;;;;9.90;4.50;;;18.90;99.90;;;;;;5094315;28;20159;-72
2023/08/24 06:25:19;;;;;;;9.20;4.35;;;19.30;99.90;;;;;;5092687;28;20063;-72
2023/08/24 06:27:46;;;;;;;8.85;4.35;;;19.80;99.90;;;;;;5112197;28;20043;-71
2023/08/24 06:30:13;;;;;;;8.13;4.45;;;20.30;99.90;;;;;;5094026;28;20039;-70
2023/08/24 06:32:40;;;;;;;12.43;4.45;;;20.90;99.90;;;;;;5093368;28;20043;-70
2023/08/24 06:35:09;;;;;;;7.40;3.65;;;21.30;99.90;;;;;;5112537;28;20058;-71
2023/08/24 06:37:36;;;;;;;10.40;4.32;;;21.90;99.90;;;;;;5112137;28;20044;-71
2023/08/24 06:40:04;;;;;;;6.28;3.63;;;22.40;99.90;;;;;;5093897;28;20043;-71
2023/08/24 06:42:31;;;;;;;7.78;3.80;;;22.90;99.90;;;;;;5093267;28;20044;-72
2023/08/24 06:44:58;;;;;;;7.18;3.20;;;23.40;99.90;;;;;;5076234;28;20044;-72
2023/08/24 06:47:25;;;;;;;5.10;3.22;;;23.90;99.90;;;;;;5081284;28;20047;-71
2023/08/24 06:49:52;;;;;;;6.40;2.92;;;24.20;99.90;;;;;;5093981;28;20495;-73
2023/08/24 06:52:20;;;;;;;6.13;2.53;;;24.50;99.90;;;;;;5093869;28;20384;-73
2023/08/24 06:54:48;;;;;;;5.22;2.22;;;24.70;99.90;;;;;;5094467;28;20401;-70
2023/08/24 06:57:15;;;;;;;9.05;2.13;;;24.80;99.90;;;;;;5094005;28;20044;-71
2023/08/24 06:59:42;;;;;;;8.63;2.47;;;25.20;99.90;;;;;;5075197;28;20071;-71
2023/08/24 07:02:09;;;;;;;8.40;2.00;;;25.30;99.90;;;;;;5074380;28;20052;-71
2023/08/24 07:04:38;;;;;;;9.20;2.13;;;25.70;99.90;;;;;;5083808;28;20438;-71
2023/08/24 07:07:05;;;;;;;5.22;1.90;;;26.00;99.90;;;;;;5093173;28;20411;-71
2023/08/24 07:09:33;;;;;;;4.50;2.00;;;26.30;99.90;;;;;;5112127;28;20092;-71
2023/08/24 07:12:00;;;;;;;3.50;1.85;;;26.50;99.90;;;;;;5076430;28;20565;-71
2023/08/24 07:14:27;;;;;;;5.50;1.80;;;27.10;99.90;;;;;;5111527;28;20490;-71
2023/08/24 07:16:54;;;;;;;6.35;2.05;;;27.50;99.90;;;;;;5109170;28;20122;-71
2023/08/24 07:19:22;;;;;;;5.05;1.65;;;27.50;99.90;;;;;;5095195;28;20043;-71
2023/08/24 07:21:49;;;;;;;7.38;1.83;;;27.60;99.60;;;;;;5092254;28;20056;-71
2023/08/24 07:24:18;;;;;;;4.65;1.98;;;28.20;99.40;;;;;;5081760;28;20560;-71
2023/08/24 07:26:47;;;;;;;6.43;2.03;;;28.00;98.60;;;;;;5076014;28;20044;-71
2023/08/24 07:29:13;;;;;;;4.85;1.70;;;28.00;98.40;;;;;;5092337;28;20113;-72
2023/08/24 07:31:41;;;;;;;6.57;2.00;;;28.40;98.10;;;;;;5075854;28;20043;-72
2023/08/24 07:34:08;;;;;;;5.55;1.88;;;28.60;97.50;;;;;;5084722;28;20113;-72
2023/08/24 07:36:35;;;;;;;7.68;1.90;;;28.70;97.30;;;;;;5092526;28;20080;-72
2023/08/24 07:39:02;;;;;;;3.20;1.40;;;28.70;96.50;;;;;;5075178;28;20048;-72
2023/08/24 07:41:29;;;;;;;4.35;1.60;;;29.00;96.50;;;;;;5092232;28;20073;-71
2023/08/24 07:43:58;;;;;;;4.25;1.50;;;29.00;96.30;;;;;;5092927;28;20060;-71
2023/08/24 07:46:25;;;;;;;6.50;2.63;;;29.20;96.10;;;;;;5075755;28;20044;-70
2023/08/24 07:48:52;;;;;;;5.20;2.13;;;29.20;95.90;;;;;;5094670;28;20048;-71
2023/08/24 07:51:19;;;;;;;4.32;1.92;;;29.40;95.50;;;;;;5075536;28;20055;-71
2023/08/24 07:53:46;;;;;;;4.78;1.50;;;29.70;95.30;;;;;;5076052;28;20040;-71
2023/08/24 07:56:12;;;;;;;2.75;1.83;;;29.60;95.40;;;;;;5076556;27;20060;-71
2023/08/24 07:58:39;;;;;;;6.68;2.47;;;29.60;95.50;;;;;;5080257;27;20044;-70
2023/08/24 08:01:08;;;;;;;6.07;2.67;;;29.90;94.90;;;;;;5096002;27;20549;-71
2023/08/24 08:03:35;;;;;;;4.35;2.35;;;30.10;94.30;;;;;;5094856;28;20052;-71
2023/08/24 08:06:03;;;;;;;5.13;2.13;;;30.30;94.40;;;;;;5097522;28;20043;-71
2023/08/24 08:08:30;;;;;;;5.07;2.13;;;30.40;94.30;;;;;;5097095;28;20043;-71
2023/08/24 08:11:01;;;;;;;4.72;2.20;;;30.50;94.10;;;;;;5096987;28;20395;-72
2023/08/24 08:13:28;;;;;;;4.72;2.17;;;30.40;93.20;;;;;;5099843;27;20047;-72
2023/08/24 08:15:55;;;;;;;4.88;2.65;;;30.50;93.80;;;;;;5116555;27;20055;-73
2023/08/24 08:18:24;;;;;;;7.30;2.60;;;30.60;93.60;;;;;;5078698;28;20079;-72
2023/08/24 08:20:52;;;;;;;4.55;2.92;;;31.00;93.20;;;;;;5079324;27;20541;-73
2023/08/24 08:23:19;;;;;;;5.00;2.40;;;31.00;92.90;;;;;;5078111;27;20130;-72
2023/08/24 08:25:46;;;;;;;5.45;2.53;;;30.80;92.60;;;;;;5078366;28;20541;-73
2023/08/24 08:28:13;;;;;;;8.65;2.80;;;31.40;93.20;;;;;;5093461;27;20044;-71
2023/08/24 08:30:40;;;;;;;5.60;3.17;;;31.80;92.80;;;;;;5096138;28;20047;-71
2023/08/24 08:33:08;;;;;;;7.43;3.00;;;31.90;91.90;;;;;;5098064;27;20524;-72
2023/08/24 08:35:36;;;;;;;6.32;2.70;;;31.90;92.20;;;;;;5095910;27;20074;-71
2023/08/24 08:38:03;;;;;;;8.30;2.97;;;32.30;91.90;;;;;;5111974;27;20126;-71
2023/08/24 08:40:31;;;;;;;5.97;2.85;;;32.10;91.60;;;;;;5096770;28;20444;-71
2023/08/24 08:42:59;;;;;;;6.97;3.20;;;32.30;91.50;;;;;;5096267;27;20392;-71
2023/08/24 08:45:27;;;;;;;7.90;3.42;;;32.00;91.40;;;;;;5112483;28;20077;-71
2023/08/24 08:47:58;;;;;;;9.65;3.13;;;31.60;91.00;;;;;;5095979;28;20039;-71
2023/08/24 08:50:26;;;;;;;8.45;2.90;;;31.90;91.20;;;;;;5112596;28;20055;-71
2023/08/24 08:52:54;;;;;;;5.63;3.13;;;31.70;91.30;;;;;;5098119;27;20062;-71
2023/08/24 08:55:22;;;;;;;7.25;3.30;;;31.60;91.20;;;;;;5094821;28;20044;-72
2023/08/24 08:57:52;;;;;;;7.32;3.55;;;31.50;91.40;;;;;;5095687;28;20131;-71
2023/08/24 09:00:20;;;;;;;6.30;3.38;;;31.20;91.60;;;;;;5088291;28;20052;-71
2023/08/24 09:02:49;;;;;;;5.22;3.40;;;30.50;92.10;;;;;;5110855;28;20051;-71
2023/08/24 09:05:16;;;;;;;7.63;3.70;;;29.90;92.80;;;;;;5075988;28;20054;-71
2023/08/24 09:07:43;;;;;;;8.27;3.42;;;29.50;93.30;;;;;;5092640;28;20494;-72
2023/08/24 09:10:11;;;;;;;7.00;3.67;;;29.00;93.70;;;;;;5075884;28;20048;-71
2023/08/24 09:12:38;;;;;;;6.82;3.65;;;28.50;94.20;;;;;;5085297;27;20043;-72
2023/08/24 09:15:07;;;;;;;8.88;3.65;;;28.20;94.80;;;;;;5102946;27;20074;-71
2023/08/24 09:17:34;;;;;;;6.95;3.60;;;27.90;95.00;;;;;;5081744;27;20483;-72
2023/08/24 09:20:07;;;;;;;7.15;3.40;;;27.80;95.40;;;;;;5132944;27;20078;-72
2023/08/24 09:22:37;;;;;;;5.10;3.00;;;27.50;95.70;;;;;;5107701;28;20055;-69
2023/08/24 09:25:06;;;;;;;7.30;3.65;;;27.60;96.00;;;;;;5093213;28;20044;-71
2023/08/24 09:27:35;;;;;;;5.80;3.03;;;27.50;95.90;;;;;;5110581;28;20049;-72
2023/08/24 09:30:03;;;;;;;7.57;3.90;;;27.40;96.30;;;;;;5109858;28;20052;-71
2023/08/24 09:32:31;;;;;;;4.32;3.17;;;27.20;96.60;;;;;;5113463;28;20092;-72
2023/08/24 09:35:04;;;;;;;5.20;3.20;;;27.00;96.70;;;;;;5109653;28;20058;-71
2023/08/24 09:37:33;;;;;;;7.28;3.85;;;26.80;97.40;;;;;;5094059;28;20408;-71
2023/08/24 09:40:07;;;;;;;10.30;4.13;;;26.50;97.40;;;;;;5094481;28;20580;-71
2023/08/24 09:42:39;;;;;;;7.35;3.80;;;26.00;97.90;;;;;;5092420;28;20046;-72
2023/08/24 09:45:07;;;;;;;6.80;3.50;;;25.90;98.40;;;;;;5094984;28;20124;-71
2023/08/24 09:47:35;;;;;;;6.20;4.10;;;25.70;98.70;;;;;;5092815;28;20101;-72
2023/08/24 09:50:02;;;;;;;7.50;4.50;;;25.40;99.00;;;;;;5080698;28;20164;-72
2023/08/24 09:52:33;;;;;;;9.65;3.65;;;25.40;99.30;;;;;;5086691;28;20079;-71
2023/08/24 09:55:05;;;;;;;9.70;4.13;;;25.30;99.80;;;;;;5091091;28;20040;-71
2023/08/24 09:57:38;;;;;;;6.88;3.38;;;25.30;99.90;;;;;;5090722;28;20514;-71
2023/08/24 10:00:10;;;;;;;7.32;3.72;;;25.20;99.90;;;;;;5092847;28;20381;-71
2023/08/24 10:02:42;;;;;;;7.25;4.10;;;25.10;99.90;;;;;;5123135;27;20039;-71
2023/08/24 10:05:11;;;;;;;8.00;3.97;;;25.00;99.90;;;;;;5105574;28;20045;-72
2023/08/24 10:07:39;;;;;;;7.90;4.10;;;24.90;99.90;;;;;;5095213;27;20047;-71
2023/08/24 10:10:13;;;;;;;7.45;4.00;;;24.80;99.90;;;;;;5132336;27;20054;-71
2023/08/24 10:12:47;;;;;;;10.90;4.15;;;24.70;99.90;;;;;;5095489;27;20048;-70
2023/08/24 10:15:15;;;;;;;10.75;4.57;;;24.60;99.90;;;;;;5110596;28;20062;-71
2023/08/24 10:17:43;;;;;;;9.18;4.50;;;24.40;99.90;;;;;;5080400;28;20040;-72
2023/08/24 10:20:12;;;;;;;7.68;5.20;;;24.30;99.90;;;;;;5107390;27;20126;-72
2023/08/24 10:22:41;;;;;;;7.93;3.75;;;24.20;99.90;;;;;;5103067;27;20071;-71
2023/08/24 10:25:09;;;;;;;7.07;4.13;;;24.10;99.90;;;;;;5092314;28;20059;-71
2023/08/24 10:27:36;;;;;;;8.10;4.50;;;24.00;99.90;;;;;;5108844;28;20069;-71
2023/08/24 10:30:05;;;;;;;8.45;5.25;;;23.90;99.90;;;;;;5090058;28;20077;-71
2023/08/24 10:32:33;;;;;;;9.10;4.47;;;23.70;99.90;;;;;;5107208;28;20506;-71
2023/08/24 10:35:00;;;;;;;10.75;5.38;;;23.70;99.90;;;;;;5088676;28;20040;-72
2023/08/24 10:37:28;;;;;;;8.73;4.82;;;23.60;99.90;;;;;;5087801;28;20055;-71
2023/08/24 10:39:55;;;;;;;10.07;5.20;;;23.50;99.90;;;;;;5091758;28;20158;-72
2023/08/24 10:42:22;;;;;;;6.18;4.25;;;23.50;99.90;;;;;;5082754;28;20052;-70
2023/08/24 10:44:50;;;;;;;8.57;4.45;;;23.50;99.90;;;;;;5088467;28;20453;-71
2023/08/24 10:47:21;;;;;;;7.63;5.22;;;23.50;99.90;;;;;;5079475;27;20040;-71
2023/08/24 10:50:00;;;;;;;8.68;5.43;;;23.40;99.90;;;;;;5103696;28;20048;-71
2023/08/24 10:52:31;;;;;;;11.15;4.93;;;23.30;99.90;;;;;;5089789;28;20124;-72
2023/08/24 10:54:58;;;;;;;11.18;5.55;;;23.30;99.90;;;;;;5092719;28;20047;-72
2023/08/24 10:57:28;;;;;;;8.57;5.13;;;23.20;99.90;;;;;;5084456;28;20051;-72
2023/08/24 11:00:06;;;;;;;14.73;6.05;;;23.20;99.90;;;;;;5101399;28;21197;-72
2023/08/24 11:02:44;;;;;;;12.40;6.35;;;23.20;99.90;;;;;;5104239;28;20043;-72
2023/08/24 11:05:21;;;;;;;11.07;5.63;;;23.10;99.90;;;;;;5087412;28;20043;-72
2023/08/24 11:07:52;;;;;;;12.82;6.55;;;23.10;99.90;;;;;;5093413;28;20406;-72
2023/08/24 11:10:20;;;;;;;9.48;6.18;;;23.10;99.90;;;;;;5087411;28;20408;-72
2023/08/24 11:13:05;;;;;;;10.40;6.68;;;23.00;99.90;;;;;;5087072;28;20483;-71
2023/08/24 11:15:32;;;;;;;9.13;5.68;;;23.10;99.90;;;;;;5090378;28;20047;-70
2023/08/24 11:18:14;;;;;;;9.20;6.28;;;23.10;99.90;;;;;;5092317;28;20056;-72
2023/08/24 11:20:44;;;;;;;11.07;5.60;;;23.10;99.90;;;;;;5089367;28;20411;-72
2023/08/24 11:23:11;;;;;;;11.95;5.63;;;23.20;99.90;;;;;;5110403;28;20043;-72
2023/08/24 11:25:38;;;;;;;9.13;5.40;;;23.20;99.90;;;;;;5109001;28;20117;-71
2023/08/24 11:28:06;;;;;;;8.35;6.00;;;23.20;99.90;;;;;;5110206;28;20071;-73
2023/08/24 11:30:34;;;;;;;11.48;6.45;;;23.20;99.90;;;;;;5092647;28;20044;-72
2023/08/24 11:33:01;;;;;;;8.73;6.53;;;23.20;99.90;;;;;;5113149;28;20050;-72
2023/08/24 11:35:29;;;;;;;9.93;6.95;;;23.20;99.90;;;;;;5090879;28;20055;-72
2023/08/24 11:37:57;;;;;;;10.15;5.57;;;23.20;99.90;;;;;;5096855;28;20071;-73
2023/08/24 11:40:26;;;;;;;8.48;6.35;;;23.20;99.90;;;;;;5111659;27;20097;-72
2023/08/24 11:42:55;;;;;;;16.30;6.88;;;23.30;99.90;;;;;;5093657;28;20063;-73
2023/08/24 11:45:22;;;;;;;10.15;6.15;;;23.40;99.90;;;;;;5111357;28;20054;-73
2023/08/24 11:47:49;;;;;;;9.43;6.72;;;23.50;99.90;;;;;;5113430;28;20059;-73
2023/08/24 11:50:17;;;;;;;10.23;6.50;;;23.60;99.90;;;;;;5099860;28;20107;-73
2023/08/24 11:52:45;;;;;;;10.75;5.85;;;23.70;99.90;;;;;;5113511;27;20487;-72
2023/08/24 11:55:12;;;;;;;11.75;6.18;;;24.00;99.90;;;;;;5100830;28;20055;-73
2023/08/24 11:57:39;;;;;;;10.98;6.60;;;24.10;99.90;;;;;;5101438;27;20044;-72
2023/08/24 12:00:08;;;;;;;9.07;6.15;;;24.20;99.90;;;;;;5112169;28;20506;-73
2023/08/24 12:02:36;;;;;;;12.43;6.75;;;24.20;99.90;;;;;;5108783;27;20047;-72
2023/08/24 12:05:07;;;;;;;9.77;6.53;;;24.30;99.90;;;;;;5096579;28;20047;-73
2023/08/24 12:07:34;;;;;;;10.50;6.35;;;24.40;99.90;;;;;;5094634;28;20124;-73
2023/08/24 12:10:03;;;;;;;9.07;6.85;;;24.40;99.90;;;;;;5085609;28;20044;-72
2023/08/24 12:12:30;;;;;;;14.60;6.57;;;24.30;99.90;;;;;;5090119;27;20120;-72
2023/08/24 12:14:58;;;;;;;11.50;5.60;;;24.20;99.90;;;;;;5093603;28;20051;-73
2023/08/24 12:17:25;;;;;;;9.05;6.20;;;24.20;99.90;;;;;;5104970;27;20514;-72
2023/08/24 12:20:00;;;;;;;12.30;6.60;;;24.20;99.90;;;;;;5091954;28;20047;-73
2023/08/24 12:22:27;;;;;;;10.48;5.97;;;24.10;99.90;;;;;;5110694;27;20104;-74
2023/08/24 12:24:54;;;;;;;8.18;6.07;;;24.00;99.90;;;;;;5091307;28;20044;-73
2023/08/24 12:27:25;;;;;;;10.27;6.22;;;24.00;99.90;;;;;;5108639;28;20043;-72
2023/08/24 12:29:53;;;;;;;10.18;5.80;;;23.90;99.90;;;;;;5105123;28;20040;-72
2023/08/24 12:32:25;;;;;;;8.38;6.32;;;23.90;99.90;;;;;;5091255;28;20403;-75
2023/08/24 12:34:54;;;;;;;11.65;6.18;;;23.90;99.90;;;;;;5110838;27;20054;-74
2023/08/24 12:37:21;;;;;;;10.80;6.20;;;23.80;99.90;;;;;;5092201;28;20425;-72
2023/08/24 12:39:49;;;;;;;7.40;5.88;;;23.90;99.90;;;;;;5091781;28;20062;-74
2023/08/24 12:42:16;;;;;;;11.48;7.35;;;23.90;99.90;;;;;;5118656;27;20052;-76
2023/08/24 12:44:44;;;;;;;10.38;6.22;;;24.00;99.90;;;;;;5091217;27;20048;-73
2023/08/24 12:47:11;;;;;;;12.00;7.40;;;24.00;99.90;;;;;;5107081;27;20047;-73